Hovedside
METAR-TAF:

METAR-TAF

Lufthavner :

Uleåborg, Finland

Uleåborg lufthavn

breddegrad: 64-56N, lengdegrad: 025-22E, høyde over havet: 12 m

Gjeldene værobservasjon

Denne rapporten ble laget for 10 minutter siden, klokken 14:20 UTC
Vind 7 kt fra Øst
Temperatur -8°C
Luftfuktighet 92%
Trykk 1021 hPa
Sikt 10 km eller mer

METAR: EFOU 221420Z AUTO 10007KT 9999 FEW011/// M08/M09 Q1021

Tid: 16:30 (14:30 UTC)

Varsel

Denne rapporten ble laget for 3 timer og 4 minutter siden, klokken 11:26 UTC
Varsel gyldig fra 22. klokken 12 UTC til 23. klokken 12 UTC
Vind 12 kt fra Øst
Sikt 10 km eller mer
ingen skyer under 1500 m og ingen bygeskyer
Sannsynlighet 40%
fra 22. klokken 12 UTC til 22. klokken 18 UTC
Brutte skyer i en høyde av 1400 ft
Midlertidig
fra 23. klokken 08 UTC til 23. klokken 12 UTC
Vind 18 kt fra Øst-sørøst med vindkast opp mot 28 kt

TAF: EFOU 221126Z 2212/2312 10012KT CAVOK PROB40 2212/2218 BKN014 TEMPO 2308/2312 12018G28KT

Værobservasjoner og værvarsel for over 4000 flyplasser (METAR- og TAF-rapporter).

Tilgjengelige stasjoner er representert av de røde og gule prikkene på kartet.

Hold musepekeren over prikken for å se navnet på stasjonen.

Klikk så for å se værobservasjoner og -varsler.

For å forandre kartet kan du klikke på den grønne knappen med svart kryss for å zoome inn, på den grønne knappen med strek for å zoome ut, eller på de grønne pilene for å se tilstøtende kart.


METAR-TAF: